sensor_id;sensor_type;location;lat;lon;timestamp;pressure;altitude;pressure_sealevel;temperature;humidity
26865;BME280;40618;51.166;10.322;2023-04-03T00:01:36;98543.34;;;1.23;75.88
26865;BME280;40618;51.166;10.322;2023-04-03T00:04:04;98536.56;;;1.23;75.79
26865;BME280;40618;51.166;10.322;2023-04-03T00:06:30;98547.56;;;1.21;76.44
26865;BME280;40618;51.166;10.322;2023-04-03T00:08:57;98544.97;;;1.19;75.77
26865;BME280;40618;51.166;10.322;2023-04-03T00:11:23;98544.06;;;1.17;76.55
26865;BME280;40618;51.166;10.322;2023-04-03T00:13:49;98554.28;;;1.17;75.83
26865;BME280;40618;51.166;10.322;2023-04-03T00:16:14;98553.38;;;1.15;76.45
26865;BME280;40618;51.166;10.322;2023-04-03T00:18:40;98556.75;;;1.14;75.87
26865;BME280;40618;51.166;10.322;2023-04-03T00:21:08;98556.72;;;1.12;76.60
26865;BME280;40618;51.166;10.322;2023-04-03T00:23:35;98547.28;;;1.10;75.76
26865;BME280;40618;51.166;10.322;2023-04-03T00:26:01;98550.59;;;1.06;75.84
26865;BME280;40618;51.166;10.322;2023-04-03T00:28:26;98554.78;;;1.04;75.81
26865;BME280;40618;51.166;10.322;2023-04-03T00:30:52;98562.41;;;1.02;76.20
26865;BME280;40618;51.166;10.322;2023-04-03T00:33:18;98557.25;;;1.00;76.06
26865;BME280;40618;51.166;10.322;2023-04-03T00:35:47;98567.50;;;1.02;76.15
26865;BME280;40618;51.166;10.322;2023-04-03T00:38:14;98566.66;;;1.01;76.48
26865;BME280;40618;51.166;10.322;2023-04-03T00:40:43;98566.66;;;1.01;76.06
26865;BME280;40618;51.166;10.322;2023-04-03T00:43:19;98564.97;;;1.04;76.73
26865;BME280;40618;51.166;10.322;2023-04-03T00:45:52;98560.84;;;1.07;76.62
26865;BME280;40618;51.166;10.322;2023-04-03T00:48:28;98559.22;;;1.11;76.40
26865;BME280;40618;51.166;10.322;2023-04-03T00:50:57;98566.00;;;1.10;75.92
26865;BME280;40618;51.166;10.322;2023-04-03T00:53:27;98564.22;;;1.08;76.44
26865;BME280;40618;51.166;10.322;2023-04-03T00:56:06;98569.38;;;1.09;76.27
26865;BME280;40618;51.166;10.322;2023-04-03T00:59:02;98563.38;;;1.07;76.00
26865;BME280;40618;51.166;10.322;2023-04-03T01:01:26;98561.63;;;1.05;76.66
26865;BME280;40618;51.166;10.322;2023-04-03T01:03:53;98567.44;;;0.99;76.21
26865;BME280;40618;51.166;10.322;2023-04-03T01:06:23;98564.84;;;0.97;75.76
26865;BME280;40618;51.166;10.322;2023-04-03T01:08:51;98564.88;;;0.99;75.81
26865;BME280;40618;51.166;10.322;2023-04-03T01:11:18;98556.34;;;0.98;75.95
26865;BME280;40618;51.166;10.322;2023-04-03T01:13:44;98561.44;;;0.98;75.87
26865;BME280;40618;51.166;10.322;2023-04-03T01:16:09;98550.34;;;0.96;76.28
26865;BME280;40618;51.166;10.322;2023-04-03T01:18:37;98556.94;;;0.88;76.21
26865;BME280;40618;51.166;10.322;2023-04-03T01:26:18;98557.63;;;0.81;76.47
26865;BME280;40618;51.166;10.322;2023-04-03T01:28:44;98559.97;;;0.75;76.10
26865;BME280;40618;51.166;10.322;2023-04-03T01:33:42;98553.16;;;0.74;76.18
26865;BME280;40618;51.166;10.322;2023-04-03T01:36:10;98564.28;;;0.76;75.95
26865;BME280;40618;51.166;10.322;2023-04-03T01:38:42;98563.50;;;0.78;76.65
26865;BME280;40618;51.166;10.322;2023-04-03T01:41:08;98570.31;;;0.79;76.52
26865;BME280;40618;51.166;10.322;2023-04-03T01:43:33;98569.47;;;0.80;76.36
26865;BME280;40618;51.166;10.322;2023-04-03T01:45:59;98572.00;;;0.79;75.87
26865;BME280;40618;51.166;10.322;2023-04-03T01:48:25;98573.63;;;0.75;75.87
26865;BME280;40618;51.166;10.322;2023-04-03T01:50:50;98581.16;;;0.72;76.42
26865;BME280;40618;51.166;10.322;2023-04-03T01:53:16;98581.91;;;0.68;76.42
26865;BME280;40618;51.166;10.322;2023-04-03T01:55:42;98577.69;;;0.69;75.89
26865;BME280;40618;51.166;10.322;2023-04-03T01:58:07;98583.63;;;0.69;76.00
26865;BME280;40618;51.166;10.322;2023-04-03T02:00:33;98584.44;;;0.68;75.94
26865;BME280;40618;51.166;10.322;2023-04-03T02:02:58;98585.28;;;0.67;75.89
26865;BME280;40618;51.166;10.322;2023-04-03T02:05:24;98587.03;;;0.70;75.64
26865;BME280;40618;51.166;10.322;2023-04-03T02:07:50;98578.50;;;0.67;76.11
26865;BME280;40618;51.166;10.322;2023-04-03T02:10:15;98576.03;;;0.71;76.69
26865;BME280;40618;51.166;10.322;2023-04-03T02:12:41;98584.56;;;0.71;76.33
26865;BME280;40618;51.166;10.322;2023-04-03T02:15:07;98583.72;;;0.72;76.09
26865;BME280;40618;51.166;10.322;2023-04-03T02:17:34;98585.31;;;0.69;75.43
26865;BME280;40618;51.166;10.322;2023-04-03T02:20:01;98574.16;;;0.65;76.35
26865;BME280;40618;51.166;10.322;2023-04-03T02:22:28;98584.25;;;0.60;76.27
26865;BME280;40618;51.166;10.322;2023-04-03T02:24:53;98585.06;;;0.59;75.55
26865;BME280;40618;51.166;10.322;2023-04-03T02:27:20;98580.72;;;0.55;76.36
26865;BME280;40618;51.166;10.322;2023-04-03T02:29:45;98576.13;;;0.43;75.64
26865;BME280;40618;51.166;10.322;2023-04-03T02:32:11;98585.47;;;0.43;75.94
26865;BME280;40618;51.166;10.322;2023-04-03T02:34:37;98583.00;;;0.46;75.81
26865;BME280;40618;51.166;10.322;2023-04-03T02:37:02;98584.75;;;0.48;75.51
26865;BME280;40618;51.166;10.322;2023-04-03T02:39:28;98589.16;;;0.54;75.87
26865;BME280;40618;51.166;10.322;2023-04-03T02:41:53;98594.31;;;0.56;75.95
26865;BME280;40618;51.166;10.322;2023-04-03T02:44:19;98593.19;;;0.46;76.17
26865;BME280;40618;51.166;10.322;2023-04-03T02:46:45;98587.97;;;0.41;76.00
26865;BME280;40618;51.166;10.322;2023-04-03T02:49:10;98590.38;;;0.37;75.92
26865;BME280;40618;51.166;10.322;2023-04-03T02:51:36;98593.78;;;0.37;75.42
26865;BME280;40618;51.166;10.322;2023-04-03T02:54:01;98592.91;;;0.37;75.70
26865;BME280;40618;51.166;10.322;2023-04-03T02:56:27;98594.38;;;0.28;76.00
26865;BME280;40618;51.166;10.322;2023-04-03T02:58:53;98593.44;;;0.25;75.70
26865;BME280;40618;51.166;10.322;2023-04-03T03:01:19;98595.25;;;0.29;75.65
26865;BME280;40618;51.166;10.322;2023-04-03T03:03:45;98594.53;;;0.33;76.39
26865;BME280;40618;51.166;10.322;2023-04-03T03:06:14;98588.66;;;0.36;76.11
26865;BME280;40618;51.166;10.322;2023-04-03T03:08:41;98591.25;;;0.37;76.01
26865;BME280;40618;51.166;10.322;2023-04-03T03:11:07;98590.28;;;0.33;75.54
26865;BME280;40618;51.166;10.322;2023-04-03T03:13:33;98586.00;;;0.32;75.79
26865;BME280;40618;51.166;10.322;2023-04-03T03:15:59;98593.66;;;0.32;76.09
26865;BME280;40618;51.166;10.322;2023-04-03T03:18:25;98591.66;;;0.22;75.40
26865;BME280;40618;51.166;10.322;2023-04-03T03:20:56;98589.88;;;0.20;75.73
26865;BME280;40618;51.166;10.322;2023-04-03T03:23:24;98588.13;;;0.17;75.84
26865;BME280;40618;51.166;10.322;2023-04-03T03:25:59;98592.34;;;0.16;75.90
26865;BME280;40618;51.166;10.322;2023-04-03T03:28:27;98591.38;;;0.13;75.57
26865;BME280;40618;51.166;10.322;2023-04-03T03:30:53;98601.50;;;0.10;75.86
26865;BME280;40618;51.166;10.322;2023-04-03T03:33:18;98593.84;;;0.10;75.86
26865;BME280;40618;51.166;10.322;2023-04-03T03:35:45;98589.56;;;0.09;75.48
26865;BME280;40618;51.166;10.322;2023-04-03T03:38:11;98593.63;;;0.02;75.44
26865;BME280;40618;51.166;10.322;2023-04-03T03:40:37;98592.50;;;-0.06;75.59
26865;BME280;40618;51.166;10.322;2023-04-03T03:43:02;98593.19;;;-0.12;75.72
26865;BME280;40618;51.166;10.322;2023-04-03T03:45:28;98596.47;;;-0.16;75.77
26865;BME280;40618;51.166;10.322;2023-04-03T03:47:54;98596.47;;;-0.16;75.61
26865;BME280;40618;51.166;10.322;2023-04-03T03:50:20;98599.00;;;-0.16;75.69
26865;BME280;40618;51.166;10.322;2023-04-03T03:52:46;98600.53;;;-0.21;75.99
26865;BME280;40618;51.166;10.322;2023-04-03T03:55:11;98602.06;;;-0.26;76.17
26865;BME280;40618;51.166;10.322;2023-04-03T03:57:37;98603.63;;;-0.31;76.02
26865;BME280;40618;51.166;10.322;2023-04-03T04:00:03;98608.00;;;-0.27;76.06
26865;BME280;40618;51.166;10.322;2023-04-03T04:02:30;98611.53;;;-0.22;75.95
26865;BME280;40618;51.166;10.322;2023-04-03T04:04:56;98617.56;;;-0.20;75.40
26865;BME280;40618;51.166;10.322;2023-04-03T04:07:22;98620.00;;;-0.23;75.61
26865;BME280;40618;51.166;10.322;2023-04-03T04:09:48;98615.78;;;-0.23;75.73
26865;BME280;40618;51.166;10.322;2023-04-03T04:12:14;98612.41;;;-0.22;76.24
26865;BME280;40618;51.166;10.322;2023-04-03T04:14:41;98621.75;;;-0.21;75.82
26865;BME280;40618;51.166;10.322;2023-04-03T04:17:06;98609.97;;;-0.19;75.63
26865;BME280;40618;51.166;10.322;2023-04-03T04:19:32;98624.31;;;-0.21;75.70
26865;BME280;40618;51.166;10.322;2023-04-03T04:21:58;98621.75;;;-0.21;75.60
26865;BME280;40618;51.166;10.322;2023-04-03T04:24:24;98614.09;;;-0.22;76.16
26865;BME280;40618;51.166;10.322;2023-04-03T04:26:49;98628.38;;;-0.27;75.98
26865;BME280;40618;51.166;10.322;2023-04-03T04:29:15;98626.63;;;-0.28;75.78
26865;BME280;40618;51.166;10.322;2023-04-03T04:31:41;98629.97;;;-0.29;76.00
26865;BME280;40618;51.166;10.322;2023-04-03T04:34:07;98624.94;;;-0.28;75.53
26865;BME280;40618;51.166;10.322;2023-04-03T04:36:32;98632.53;;;-0.29;75.95
26865;BME280;40618;51.166;10.322;2023-04-03T04:38:58;98635.03;;;-0.31;76.03
26865;BME280;40618;51.166;10.322;2023-04-03T04:41:24;98635.78;;;-0.33;75.88
26865;BME280;40618;51.166;10.322;2023-04-03T04:43:51;98639.91;;;-0.37;75.98
26865;BME280;40618;51.166;10.322;2023-04-03T04:46:17;98642.41;;;-0.39;75.55
26865;BME280;40618;51.166;10.322;2023-04-03T04:48:44;98636.47;;;-0.39;75.54
26865;BME280;40618;51.166;10.322;2023-04-03T04:51:10;98641.59;;;-0.38;75.68
26865;BME280;40618;51.166;10.322;2023-04-03T04:53:37;98634.81;;;-0.37;75.34
26865;BME280;40618;51.166;10.322;2023-04-03T04:56:03;98633.00;;;-0.41;75.97
26865;BME280;40618;51.166;10.322;2023-04-03T04:58:29;98643.88;;;-0.45;75.62
26865;BME280;40618;51.166;10.322;2023-04-03T05:01:02;98641.28;;;-0.47;75.82
26865;BME280;40618;51.166;10.322;2023-04-03T05:03:30;98642.22;;;-0.45;75.66
26865;BME280;40618;51.166;10.322;2023-04-03T05:05:56;98649.84;;;-0.45;75.66
26865;BME280;40618;51.166;10.322;2023-04-03T05:08:23;98642.97;;;-0.47;75.91
26865;BME280;40618;51.166;10.322;2023-04-03T05:10:48;98652.28;;;-0.48;75.59
26865;BME280;40618;51.166;10.322;2023-04-03T05:13:14;98653.91;;;-0.50;75.75
26865;BME280;40618;51.166;10.322;2023-04-03T05:15:40;98657.28;;;-0.51;75.69
26865;BME280;40618;51.166;10.322;2023-04-03T05:18:06;98651.25;;;-0.55;75.76
26865;BME280;40618;51.166;10.322;2023-04-03T05:20:33;98653.50;;;-0.62;75.65
26865;BME280;40618;51.166;10.322;2023-04-03T05:23:00;98662.19;;;-0.57;75.92
26865;BME280;40618;51.166;10.322;2023-04-03T05:25:26;98666.28;;;-0.61;75.97
26865;BME280;40618;51.166;10.322;2023-04-03T05:27:52;98661.28;;;-0.58;75.61
26865;BME280;40618;51.166;10.322;2023-04-03T05:30:17;98663.97;;;-0.55;75.83
26865;BME280;40618;51.166;10.322;2023-04-03T05:32:43;98664.91;;;-0.51;75.62
26865;BME280;40618;51.166;10.322;2023-04-03T05:35:09;98659.88;;;-0.49;76.06
26865;BME280;40618;51.166;10.322;2023-04-03T05:37:35;98664.00;;;-0.53;75.80
26865;BME280;40618;51.166;10.322;2023-04-03T05:40:02;98666.50;;;-0.55;76.02
26865;BME280;40618;51.166;10.322;2023-04-03T05:42:29;98663.69;;;-0.62;75.65
26865;BME280;40618;51.166;10.322;2023-04-03T05:44:55;98667.00;;;-0.65;75.91
26865;BME280;40618;51.166;10.322;2023-04-03T05:47:21;98672.31;;;-0.59;75.86
26865;BME280;40618;51.166;10.322;2023-04-03T05:49:47;98675.78;;;-0.55;75.80
26865;BME280;40618;51.166;10.322;2023-04-03T05:52:35;98676.69;;;-0.55;76.03
26865;BME280;40618;51.166;10.322;2023-04-03T05:55:03;98676.72;;;-0.53;75.94
26865;BME280;40618;51.166;10.322;2023-04-03T05:57:29;98676.56;;;-0.58;75.80
26865;BME280;40618;51.166;10.322;2023-04-03T05:59:55;98673.09;;;-0.60;75.79
26865;BME280;40618;51.166;10.322;2023-04-03T06:02:22;98681.53;;;-0.61;75.54
26865;BME280;40618;51.166;10.322;2023-04-03T06:04:49;98684.03;;;-0.62;75.67
26865;BME280;40618;51.166;10.322;2023-04-03T06:07:17;98682.31;;;-0.63;75.93
26865;BME280;40618;51.166;10.322;2023-04-03T06:09:46;98686.59;;;-0.62;75.95
26865;BME280;40618;51.166;10.322;2023-04-03T06:12:12;98677.13;;;-0.66;75.95
26865;BME280;40618;51.166;10.322;2023-04-03T06:14:38;98689.13;;;-0.62;75.85
26865;BME280;40618;51.166;10.322;2023-04-03T06:17:04;98688.47;;;-0.57;75.90
26865;BME280;40618;51.166;10.322;2023-04-03T06:19:31;98692.81;;;-0.54;75.80
26865;BME280;40618;51.166;10.322;2023-04-03T06:21:56;98696.25;;;-0.52;75.73
26865;BME280;40618;51.166;10.322;2023-04-03T06:24:22;98695.25;;;-0.57;75.75
26865;BME280;40618;51.166;10.322;2023-04-03T06:26:49;98695.19;;;-0.59;75.64
26865;BME280;40618;51.166;10.322;2023-04-03T06:29:17;98692.44;;;-0.65;75.41
26865;BME280;40618;51.166;10.322;2023-04-03T06:31:43;98695.69;;;-0.69;75.48
26865;BME280;40618;51.166;10.322;2023-04-03T06:34:10;98699.03;;;-0.70;75.99
26865;BME280;40618;51.166;10.322;2023-04-03T06:36:37;98697.47;;;-0.66;75.79
26865;BME280;40618;51.166;10.322;2023-04-03T06:39:02;98707.59;;;-0.68;75.82
26865;BME280;40618;51.166;10.322;2023-04-03T06:41:28;98708.81;;;-0.81;75.67
26865;BME280;40618;51.166;10.322;2023-04-03T06:43:54;98719.84;;;-0.82;75.26
26865;BME280;40618;51.166;10.322;2023-04-03T06:46:22;98716.41;;;-0.82;75.44
26865;BME280;40618;51.166;10.322;2023-04-03T06:48:48;98715.66;;;-0.80;75.65
26865;BME280;40618;51.166;10.322;2023-04-03T06:51:18;98711.50;;;-0.78;75.43
26865;BME280;40618;51.166;10.322;2023-04-03T06:53:47;98722.44;;;-0.80;75.51
26865;BME280;40618;51.166;10.322;2023-04-03T06:56:13;98722.38;;;-0.82;75.30
26865;BME280;40618;51.166;10.322;2023-04-03T06:58:40;98732.38;;;-0.87;75.56
26865;BME280;40618;51.166;10.322;2023-04-03T07:01:07;98727.47;;;-0.82;75.29
26865;BME280;40618;51.166;10.322;2023-04-03T07:03:34;98736.75;;;-0.82;75.21
26865;BME280;40618;51.166;10.322;2023-04-03T07:06:01;98742.59;;;-0.85;75.18
26865;BME280;40618;51.166;10.322;2023-04-03T07:08:26;98749.97;;;-0.93;75.02
26865;BME280;40618;51.166;10.322;2023-04-03T07:10:52;98753.19;;;-0.97;75.27
26865;BME280;40618;51.166;10.322;2023-04-03T07:13:17;98761.03;;;-0.91;75.35
26865;BME280;40618;51.166;10.322;2023-04-03T07:15:43;98763.16;;;-0.79;75.51
26865;BME280;40618;51.166;10.322;2023-04-03T07:18:09;98768.59;;;-0.70;75.44
26865;BME280;40618;51.166;10.322;2023-04-03T07:20:34;98776.53;;;-0.60;75.76
26865;BME280;40618;51.166;10.322;2023-04-03T07:23:00;98770.91;;;-0.52;75.26
26865;BME280;40618;51.166;10.322;2023-04-03T07:25:27;98777.25;;;-0.40;75.13
26865;BME280;40618;51.166;10.322;2023-04-03T07:27:53;98764.63;;;-0.37;75.55
26865;BME280;40618;51.166;10.322;2023-04-03T07:30:20;98776.81;;;-0.28;74.99
26865;BME280;40618;51.166;10.322;2023-04-03T07:32:46;98777.75;;;-0.25;74.79
26865;BME280;40618;51.166;10.322;2023-04-03T07:35:11;98783.13;;;-0.17;75.08
26865;BME280;40618;51.166;10.322;2023-04-03T07:37:37;98795.41;;;-0.05;75.24
26865;BME280;40618;51.166;10.322;2023-04-03T07:40:03;98787.16;;;0.02;74.99
26865;BME280;40618;51.166;10.322;2023-04-03T07:42:30;98795.81;;;0.07;74.90
26865;BME280;40618;51.166;10.322;2023-04-03T07:44:56;98793.41;;;0.12;74.55
26865;BME280;40618;51.166;10.322;2023-04-03T07:47:22;98796.94;;;0.15;74.79
26865;BME280;40618;51.166;10.322;2023-04-03T07:49:48;98800.44;;;0.19;74.74
26865;BME280;40618;51.166;10.322;2023-04-03T07:52:13;98798.91;;;0.24;74.88
26865;BME280;40618;51.166;10.322;2023-04-03T07:54:40;98794.22;;;0.37;74.43
26865;BME280;40618;51.166;10.322;2023-04-03T07:57:07;98796.28;;;0.48;74.45
26865;BME280;40618;51.166;10.322;2023-04-03T07:59:32;98795.56;;;0.53;74.03
26865;BME280;40618;51.166;10.322;2023-04-03T08:01:58;98800.66;;;0.53;74.75
26865;BME280;40618;51.166;10.322;2023-04-03T08:04:24;98811.63;;;0.50;73.87
26865;BME280;40618;51.166;10.322;2023-04-03T08:06:51;98797.06;;;0.46;74.32
26865;BME280;40618;51.166;10.322;2023-04-03T08:09:18;98806.22;;;0.41;73.65
26865;BME280;40618;51.166;10.322;2023-04-03T08:11:44;98811.09;;;0.33;73.89
26865;BME280;40618;51.166;10.322;2023-04-03T08:14:10;98810.84;;;0.25;73.68
26865;BME280;40618;51.166;10.322;2023-04-03T08:16:42;98815.94;;;0.25;73.53
26865;BME280;40618;51.166;10.322;2023-04-03T08:19:09;98820.94;;;0.22;73.41
26865;BME280;40618;51.166;10.322;2023-04-03T08:21:36;98818.22;;;0.17;73.60
26865;BME280;40618;51.166;10.322;2023-04-03T08:24:02;98816.38;;;0.13;73.95
26865;BME280;40618;51.166;10.322;2023-04-03T08:26:29;98812.06;;;0.11;73.39
26865;BME280;40618;51.166;10.322;2023-04-03T08:28:54;98802.66;;;0.08;73.54
26865;BME280;40618;51.166;10.322;2023-04-03T08:31:20;98806.81;;;0.06;73.30
26865;BME280;40618;51.166;10.322;2023-04-03T08:33:47;98801.00;;;0.10;73.71
26865;BME280;40618;51.166;10.322;2023-04-03T08:36:21;98813.03;;;0.14;73.85
26865;BME280;40618;51.166;10.322;2023-04-03T08:38:50;98810.78;;;0.24;73.38
26865;BME280;40618;51.166;10.322;2023-04-03T08:41:35;98811.28;;;0.39;73.08
26865;BME280;40618;51.166;10.322;2023-04-03T08:44:26;98815.03;;;0.50;73.71
26865;BME280;40618;51.166;10.322;2023-04-03T08:47:20;98817.03;;;0.59;73.46
26865;BME280;40618;51.166;10.322;2023-04-03T08:50:00;98811.34;;;0.68;73.70
26865;BME280;40618;51.166;10.322;2023-04-03T08:52:45;98813.94;;;0.70;73.44
26865;BME280;40618;51.166;10.322;2023-04-03T08:55:28;98812.94;;;0.64;72.80
26865;BME280;40618;51.166;10.322;2023-04-03T09:00:41;98799.94;;;0.57;73.04
26865;BME280;40618;51.166;10.322;2023-04-03T09:03:15;98817.84;;;0.58;72.50
26865;BME280;40618;51.166;10.322;2023-04-03T09:06:00;98808.56;;;0.60;72.70
26865;BME280;40618;51.166;10.322;2023-04-03T09:09:32;98805.47;;;0.71;73.32
26865;BME280;40618;51.166;10.322;2023-04-03T09:23:19;98799.50;;;1.58;72.63
26865;BME280;40618;51.166;10.322;2023-04-03T09:25:58;98801.94;;;1.54;72.14
26865;BME280;40618;51.166;10.322;2023-04-03T09:28:33;98801.72;;;1.46;72.53
26865;BME280;40618;51.166;10.322;2023-04-03T09:34:31;98791.19;;;1.35;72.25
26865;BME280;40618;51.166;10.322;2023-04-03T09:37:02;98803.84;;;1.30;72.44
26865;BME280;40618;51.166;10.322;2023-04-03T09:39:32;98791.69;;;1.52;72.64
26865;BME280;40618;51.166;10.322;2023-04-03T09:45:21;98788.53;;;1.94;72.28
26865;BME280;40618;51.166;10.322;2023-04-03T09:51:00;98792.34;;;1.77;71.57
26865;BME280;40618;51.166;10.322;2023-04-03T09:53:41;98796.34;;;1.67;71.15
26865;BME280;40618;51.166;10.322;2023-04-03T09:58:48;98793.34;;;1.51;71.08
26865;BME280;40618;51.166;10.322;2023-04-03T10:01:23;98796.53;;;1.43;71.50
26865;BME280;40618;51.166;10.322;2023-04-03T10:04:09;98794.72;;;1.39;71.57
26865;BME280;40618;51.166;10.322;2023-04-03T10:06:40;98795.53;;;1.38;71.32
26865;BME280;40618;51.166;10.322;2023-04-03T10:09:29;98801.41;;;1.35;71.04
26865;BME280;40618;51.166;10.322;2023-04-03T10:12:11;98786.00;;;1.32;71.35
26865;BME280;40618;51.166;10.322;2023-04-03T10:14:54;98787.13;;;1.42;71.99
26865;BME280;40618;51.166;10.322;2023-04-03T10:20:47;98774.13;;;2.31;71.44
26865;BME280;40618;51.166;10.322;2023-04-03T10:23:45;98780.97;;;2.70;71.95
26865;BME280;40618;51.166;10.322;2023-04-03T10:29:21;98770.66;;;2.66;71.16
26865;BME280;40618;51.166;10.322;2023-04-03T10:46:53;98764.56;;;3.00;70.15
26865;BME280;40618;51.166;10.322;2023-04-03T10:49:44;98754.81;;;2.82;69.50
26865;BME280;40618;51.166;10.322;2023-04-03T10:52:21;98771.69;;;2.74;69.78
26865;BME280;40618;51.166;10.322;2023-04-03T10:57:40;98758.09;;;2.77;69.78
26865;BME280;40618;51.166;10.322;2023-04-03T11:00:35;98761.50;;;2.77;69.59
26865;BME280;40618;51.166;10.322;2023-04-03T11:03:15;98747.81;;;2.74;69.00
26865;BME280;40618;51.166;10.322;2023-04-03T11:05:50;98757.16;;;2.73;69.24
26865;BME280;40618;51.166;10.322;2023-04-03T11:10:57;98757.03;;;2.67;69.58
26865;BME280;40618;51.166;10.322;2023-04-03T11:16:19;98736.34;;;2.56;68.48
26865;BME280;40618;51.166;10.322;2023-04-03T11:21:33;98739.03;;;2.62;67.92
26865;BME280;40618;51.166;10.322;2023-04-03T11:24:05;98733.63;;;2.50;68.61
26865;BME280;40618;51.166;10.322;2023-04-03T11:26:44;98723.56;;;2.56;68.59
26865;BME280;40618;51.166;10.322;2023-04-03T11:29:14;98723.84;;;2.70;68.56
26865;BME280;40618;51.166;10.322;2023-04-03T11:34:34;98709.16;;;3.01;68.98
26865;BME280;40618;51.166;10.322;2023-04-03T11:37:36;98720.47;;;3.12;68.14
26865;BME280;40618;51.166;10.322;2023-04-03T11:42:49;98713.00;;;3.23;68.65
26865;BME280;40618;51.166;10.322;2023-04-03T11:48:29;98716.44;;;3.25;68.70
26865;BME280;40618;51.166;10.322;2023-04-03T11:50:58;98714.81;;;3.29;68.24
26865;BME280;40618;51.166;10.322;2023-04-03T11:56:00;98713.28;;;3.38;67.98
26865;BME280;40618;51.166;10.322;2023-04-03T11:58:29;98714.31;;;3.48;67.84
26865;BME280;40618;51.166;10.322;2023-04-03T12:01:42;98706.75;;;3.53;68.06
26865;BME280;40618;51.166;10.322;2023-04-03T12:04:10;98707.75;;;3.61;68.13
26865;BME280;40618;51.166;10.322;2023-04-03T12:12:38;98696.63;;;3.62;67.33
26865;BME280;40618;51.166;10.322;2023-04-03T12:19:24;98704.56;;;3.75;67.19
26865;BME280;40618;51.166;10.322;2023-04-03T12:37:44;98682.38;;;3.77;66.19
26865;BME280;40618;51.166;10.322;2023-04-03T12:40:45;98682.31;;;3.72;66.70
26865;BME280;40618;51.166;10.322;2023-04-03T12:43:35;98674.66;;;3.75;66.65
26865;BME280;40618;51.166;10.322;2023-04-03T12:46:24;98672.19;;;3.81;66.47
26865;BME280;40618;51.166;10.322;2023-04-03T12:48:58;98670.56;;;3.85;66.39
26865;BME280;40618;51.166;10.322;2023-04-03T12:51:43;98671.38;;;3.84;65.88
26865;BME280;40618;51.166;10.322;2023-04-03T12:54:34;98667.03;;;3.80;65.96
26865;BME280;40618;51.166;10.322;2023-04-03T12:57:10;98660.34;;;3.88;66.47
26865;BME280;40618;51.166;10.322;2023-04-03T12:59:37;98657.78;;;3.88;66.13
26865;BME280;40618;51.166;10.322;2023-04-03T13:02:15;98666.34;;;3.87;66.25
26865;BME280;40618;51.166;10.322;2023-04-03T13:04:50;98659.50;;;3.87;66.12
26865;BME280;40618;51.166;10.322;2023-04-03T13:07:20;98653.63;;;3.95;65.74
26865;BME280;40618;51.166;10.322;2023-04-03T13:09:59;98658.81;;;3.98;65.80
26865;BME280;40618;51.166;10.322;2023-04-03T13:12:28;98663.94;;;3.98;66.11
26865;BME280;40618;51.166;10.322;2023-04-03T13:14:59;98650.22;;;3.96;66.09
26865;BME280;40618;51.166;10.322;2023-04-03T13:17:30;98656.19;;;3.96;66.02
26865;BME280;40618;51.166;10.322;2023-04-03T13:20:10;98657.09;;;3.98;65.64
26865;BME280;40618;51.166;10.322;2023-04-03T13:22:44;98657.88;;;3.93;65.53
26865;BME280;40618;51.166;10.322;2023-04-03T13:25:16;98661.22;;;3.88;65.25
26865;BME280;40618;51.166;10.322;2023-04-03T13:27:43;98647.50;;;3.86;65.72
26865;BME280;40618;51.166;10.322;2023-04-03T13:30:39;98644.94;;;3.85;65.30
26865;BME280;40618;51.166;10.322;2023-04-03T13:33:20;98636.59;;;3.97;65.30
26865;BME280;40618;51.166;10.322;2023-04-03T13:35:58;98627.34;;;4.08;65.26
26865;BME280;40618;51.166;10.322;2023-04-03T13:38:30;98642.03;;;4.18;65.37
26865;BME280;40618;51.166;10.322;2023-04-03T13:41:01;98641.19;;;4.21;65.15
26865;BME280;40618;51.166;10.322;2023-04-03T13:43:35;98636.03;;;4.18;65.19
26865;BME280;40618;51.166;10.322;2023-04-03T13:48:45;98642.75;;;4.10;64.76
26865;BME280;40618;51.166;10.322;2023-04-03T13:53:47;98633.31;;;4.09;64.85
26865;BME280;40618;51.166;10.322;2023-04-03T13:56:39;98636.78;;;4.09;64.70
26865;BME280;40618;51.166;10.322;2023-04-03T14:01:56;98623.78;;;3.97;64.58
26865;BME280;40618;51.166;10.322;2023-04-03T14:07:13;98629.78;;;4.00;64.57
26865;BME280;40618;51.166;10.322;2023-04-03T14:09:41;98634.88;;;3.99;64.77
26865;BME280;40618;51.166;10.322;2023-04-03T14:12:14;98628.06;;;3.98;64.56
26865;BME280;40618;51.166;10.322;2023-04-03T14:14:49;98620.41;;;3.99;64.68
26865;BME280;40618;51.166;10.322;2023-04-03T14:17:26;98613.69;;;4.07;64.86
26865;BME280;40618;51.166;10.322;2023-04-03T14:19:54;98625.59;;;4.05;64.58
26865;BME280;40618;51.166;10.322;2023-04-03T14:22:30;98630.72;;;4.05;64.59
26865;BME280;40618;51.166;10.322;2023-04-03T14:24:58;98628.94;;;4.01;64.00
26865;BME280;40618;51.166;10.322;2023-04-03T14:27:27;98626.34;;;3.97;64.53
26865;BME280;40618;51.166;10.322;2023-04-03T14:29:56;98638.31;;;3.98;64.17
26865;BME280;40618;51.166;10.322;2023-04-03T14:32:24;98624.53;;;3.91;63.97
26865;BME280;40618;51.166;10.322;2023-04-03T14:34:51;98627.81;;;3.82;63.99
26865;BME280;40618;51.166;10.322;2023-04-03T14:37:23;98625.22;;;3.81;64.35
26865;BME280;40618;51.166;10.322;2023-04-03T14:39:53;98614.19;;;3.85;64.42
26865;BME280;40618;51.166;10.322;2023-04-03T14:42:23;98606.66;;;3.94;64.43
26865;BME280;40618;51.166;10.322;2023-04-03T14:44:52;98602.53;;;4.07;64.00
26865;BME280;40618;51.166;10.322;2023-04-03T14:47:23;98597.53;;;4.13;63.79
26865;BME280;40618;51.166;10.322;2023-04-03T14:49:51;98611.16;;;4.12;63.79
26865;BME280;40618;51.166;10.322;2023-04-03T14:52:27;98611.16;;;4.11;63.29
26865;BME280;40618;51.166;10.322;2023-04-03T14:54:55;98601.66;;;4.03;63.29
26865;BME280;40618;51.166;10.322;2023-04-03T14:57:24;98599.81;;;3.95;63.41
26865;BME280;40618;51.166;10.322;2023-04-03T14:59:51;98607.50;;;3.95;63.89
26865;BME280;40618;51.166;10.322;2023-04-03T15:02:33;98604.13;;;3.99;64.05
26865;BME280;40618;51.166;10.322;2023-04-03T15:05:02;98599.91;;;4.01;62.95
26865;BME280;40618;51.166;10.322;2023-04-03T15:07:33;98603.16;;;3.89;63.15